createdAt,value
2023-02-12T00:01:20.341Z,1.16
2023-02-12T00:03:47.896Z,1.36
2023-02-12T00:06:16.138Z,1.43
2023-02-12T00:08:43.952Z,1.41
2023-02-12T00:11:16.739Z,1.37
2023-02-12T00:13:45.166Z,1.43
2023-02-12T00:16:15.149Z,1.49
2023-02-12T00:18:43.146Z,1.29
2023-02-12T00:21:10.331Z,1.43
2023-02-12T00:23:39.102Z,1.00
2023-02-12T00:26:08.925Z,1.35
2023-02-12T00:28:36.514Z,0.92
2023-02-12T00:31:07.838Z,1.31
2023-02-12T00:33:35.165Z,1.14
2023-02-12T00:36:02.659Z,1.37
2023-02-12T00:38:29.832Z,1.33
2023-02-12T00:40:56.957Z,1.23
2023-02-12T00:43:24.204Z,1.33
2023-02-12T00:45:51.084Z,1.24
2023-02-12T00:48:18.363Z,1.10
2023-02-12T00:50:46.932Z,1.41
2023-02-12T00:53:14.027Z,1.30
2023-02-12T00:55:41.158Z,1.36
2023-02-12T00:58:08.934Z,1.34
2023-02-12T01:00:35.882Z,1.38
2023-02-12T01:03:04.262Z,1.33
2023-02-12T01:05:32.600Z,1.39
2023-02-12T01:07:59.604Z,1.10
2023-02-12T01:10:26.965Z,1.19
2023-02-12T01:12:54.445Z,1.29
2023-02-12T01:15:22.084Z,1.22
2023-02-12T01:17:52.181Z,1.27
2023-02-12T01:20:22.213Z,1.43
2023-02-12T01:22:49.440Z,1.23
2023-02-12T01:25:20.119Z,1.25
2023-02-12T01:27:47.855Z,1.36
2023-02-12T01:30:16.370Z,1.30
2023-02-12T01:33:25.208Z,1.43
2023-02-12T01:35:52.824Z,1.27
2023-02-12T01:38:19.864Z,1.25
2023-02-12T01:40:46.924Z,1.19
2023-02-12T01:43:14.005Z,1.31
2023-02-12T01:45:41.395Z,1.42
2023-02-12T01:48:08.780Z,1.31
2023-02-12T01:50:35.954Z,1.34
2023-02-12T01:53:03.133Z,1.15
2023-02-12T01:55:30.703Z,1.28
2023-02-12T01:57:57.675Z,1.31
2023-02-12T02:00:25.859Z,1.42
2023-02-12T02:02:56.958Z,1.36
2023-02-12T02:05:38.069Z,1.46
2023-02-12T02:08:05.441Z,1.26
2023-02-12T02:10:32.632Z,1.20
2023-02-12T02:13:18.840Z,1.07
2023-02-12T02:15:50.876Z,1.14
2023-02-12T02:18:27.618Z,1.05
2023-02-12T02:21:09.822Z,0.99
2023-02-12T02:24:06.792Z,0.91
2023-02-12T02:27:01.586Z,0.99
2023-02-12T02:30:03.989Z,0.71
2023-02-12T02:32:41.225Z,0.92
2023-02-12T02:35:26.229Z,0.74
2023-02-12T02:38:19.721Z,0.82
2023-02-12T02:41:30.635Z,0.70
2023-02-12T02:43:59.329Z,0.53
2023-02-12T02:46:42.795Z,0.59
2023-02-12T02:49:22.013Z,0.46
2023-02-12T02:51:54.774Z,0.66
2023-02-12T02:54:30.975Z,0.79
2023-02-12T02:57:05.774Z,0.70
2023-02-12T02:59:38.556Z,0.82
2023-02-12T03:02:21.700Z,0.72
2023-02-12T03:04:53.447Z,0.80
2023-02-12T03:07:28.707Z,0.82
2023-02-12T03:10:14.927Z,0.77
2023-02-12T03:12:41.940Z,0.96
2023-02-12T03:15:15.272Z,0.94
2023-02-12T03:17:45.538Z,0.71
2023-02-12T03:20:19.419Z,0.75
2023-02-12T03:23:03.733Z,0.58
2023-02-12T03:25:38.716Z,0.36
2023-02-12T03:28:18.310Z,0.52
2023-02-12T03:30:55.727Z,0.52
2023-02-12T03:33:31.487Z,0.64
2023-02-12T03:36:06.721Z,0.60
2023-02-12T03:38:50.055Z,0.67
2023-02-12T03:41:50.119Z,0.53
2023-02-12T03:44:47.384Z,0.52
2023-02-12T03:47:32.919Z,0.48
2023-02-12T03:50:18.512Z,0.58
2023-02-12T03:52:47.336Z,0.55
2023-02-12T03:55:15.796Z,0.77
2023-02-12T03:57:46.802Z,0.76
2023-02-12T04:00:19.141Z,0.86
2023-02-12T04:02:48.271Z,0.75
2023-02-12T04:05:33.662Z,0.82
2023-02-12T04:08:04.381Z,0.64
2023-02-12T04:10:55.439Z,0.57
2023-02-12T04:13:53.344Z,0.64
2023-02-12T04:16:29.713Z,0.50
2023-02-12T04:18:57.331Z,0.52
2023-02-12T04:21:48.812Z,0.54
2023-02-12T04:24:55.725Z,0.47
2023-02-12T04:28:01.075Z,0.64
2023-02-12T04:30:56.587Z,0.55
2023-02-12T04:33:28.422Z,0.52
2023-02-12T04:36:05.813Z,-0.70
2023-02-12T04:38:46.974Z,0.70
2023-02-12T04:41:14.285Z,0.56
2023-02-12T04:43:41.140Z,0.62
2023-02-12T04:46:09.416Z,0.78
2023-02-12T04:48:49.821Z,0.73
2023-02-12T04:51:16.905Z,0.68
2023-02-12T04:53:43.752Z,0.54
2023-02-12T04:56:13.801Z,0.73
2023-02-12T04:58:41.968Z,0.84
2023-02-12T05:01:10.605Z,0.68
2023-02-12T05:03:37.920Z,0.78
2023-02-12T05:06:07.745Z,0.95
2023-02-12T05:08:34.727Z,0.99
2023-02-12T05:11:09.880Z,0.99
2023-02-12T05:13:38.012Z,0.96
2023-02-12T05:16:08.543Z,1.01
2023-02-12T05:18:35.995Z,0.92
2023-02-12T05:21:05.067Z,0.89
2023-02-12T05:23:35.286Z,0.98
2023-02-12T05:26:04.445Z,0.85
2023-02-12T05:28:32.055Z,1.05
2023-02-12T05:31:05.933Z,0.78
2023-02-12T05:33:33.215Z,1.14
2023-02-12T05:36:09.513Z,1.09
2023-02-12T05:38:37.170Z,1.21
2023-02-12T05:41:17.831Z,1.10
2023-02-12T05:43:47.110Z,1.12
2023-02-12T05:46:15.961Z,1.14
2023-02-12T05:48:43.009Z,1.11
2023-02-12T05:51:12.698Z,1.06
2023-02-12T05:53:40.793Z,1.03
2023-02-12T05:56:14.168Z,1.00
2023-02-12T05:58:42.654Z,0.88
2023-02-12T06:01:31.444Z,0.87
2023-02-12T06:03:59.816Z,0.77
2023-02-12T06:06:28.517Z,0.82
2023-02-12T06:08:56.469Z,0.93
2023-02-12T06:11:23.508Z,0.90
2023-02-12T06:13:51.301Z,0.84
2023-02-12T06:16:27.156Z,0.51
2023-02-12T06:18:55.855Z,0.88
2023-02-12T06:21:24.939Z,1.00
2023-02-12T06:23:53.878Z,1.04
2023-02-12T06:26:21.990Z,1.01
2023-02-12T06:28:49.594Z,1.09
2023-02-12T06:31:29.605Z,0.93
2023-02-12T06:33:59.422Z,0.94
2023-02-12T06:36:26.564Z,0.77
2023-02-12T06:38:53.952Z,0.89
2023-02-12T06:41:22.099Z,0.75
2023-02-12T06:43:49.137Z,0.90
2023-02-12T06:46:17.226Z,0.81
2023-02-12T06:48:45.458Z,0.87
2023-02-12T06:51:18.428Z,0.82
2023-02-12T06:53:45.638Z,0.81
2023-02-12T06:56:13.955Z,0.84
2023-02-12T06:58:46.674Z,0.82
2023-02-12T07:01:19.484Z,0.91
2023-02-12T07:03:53.852Z,1.11
2023-02-12T07:06:22.392Z,1.12
2023-02-12T07:08:49.364Z,1.00
2023-02-12T07:11:17.125Z,1.06
2023-02-12T07:13:45.374Z,0.96
2023-02-12T07:16:14.933Z,0.60
2023-02-12T07:18:43.369Z,0.96
2023-02-12T07:21:12.574Z,1.08
2023-02-12T07:23:39.957Z,1.02
2023-02-12T07:28:38.620Z,0.86
2023-02-12T07:31:24.741Z,0.92
2023-02-12T07:33:57.271Z,0.96
2023-02-12T07:36:26.672Z,0.87
2023-02-12T07:38:57.385Z,1.15
2023-02-12T07:41:35.542Z,0.84
2023-02-12T07:44:10.147Z,0.83
2023-02-12T07:46:48.192Z,0.88
2023-02-12T07:49:18.641Z,0.76
2023-02-12T07:51:46.141Z,0.48
2023-02-12T07:54:13.872Z,0.89
2023-02-12T07:56:42.567Z,0.78
2023-02-12T07:59:15.743Z,0.90
2023-02-12T08:01:46.891Z,0.79
2023-02-12T08:04:16.752Z,0.55
2023-02-12T08:06:46.016Z,0.77
2023-02-12T08:09:16.051Z,0.73
2023-02-12T08:11:43.899Z,0.74
2023-02-12T08:14:17.550Z,0.80
2023-02-12T08:16:46.198Z,0.87
2023-02-12T08:19:20.986Z,0.86
2023-02-12T08:21:51.588Z,0.98
2023-02-12T08:24:18.956Z,0.97
2023-02-12T08:26:46.062Z,0.81
2023-02-12T08:29:16.065Z,0.54
2023-02-12T08:31:45.913Z,0.96
2023-02-12T08:34:21.944Z,1.02
2023-02-12T08:36:51.204Z,1.01
2023-02-12T08:39:18.608Z,1.11
2023-02-12T08:41:45.995Z,1.08
2023-02-12T08:44:14.100Z,1.14
2023-02-12T08:46:46.939Z,1.28
2023-02-12T08:49:16.405Z,1.23
2023-02-12T08:51:48.710Z,1.29
2023-02-12T08:54:22.292Z,0.97
2023-02-12T08:56:50.109Z,1.22
2023-02-12T08:59:17.573Z,0.56
2023-02-12T09:01:45.630Z,1.13
2023-02-12T09:04:18.385Z,1.19
2023-02-12T09:06:46.592Z,1.26
2023-02-12T09:09:15.156Z,1.11
2023-02-12T09:11:43.135Z,1.25
2023-02-12T09:14:13.765Z,1.15
2023-02-12T09:16:41.424Z,1.11
2023-02-12T09:19:11.635Z,1.16
2023-02-12T09:21:38.601Z,1.25
2023-02-12T09:24:05.799Z,1.18
2023-02-12T09:26:32.859Z,1.26
2023-02-12T09:29:02.164Z,1.28
2023-02-12T09:31:30.068Z,1.35
2023-02-12T09:34:03.559Z,1.40
2023-02-12T09:36:31.059Z,1.15
2023-02-12T09:39:00.684Z,1.41
2023-02-12T09:41:36.665Z,1.47
2023-02-12T09:44:22.926Z,1.51
2023-02-12T09:47:05.216Z,1.07
2023-02-12T09:49:56.154Z,1.57
2023-02-12T09:52:27.767Z,1.53
2023-02-12T09:54:56.186Z,1.59
2023-02-12T09:57:36.302Z,1.57
2023-02-12T10:00:15.985Z,1.57
2023-02-12T10:02:43.237Z,1.31
2023-02-12T10:05:27.289Z,1.61
2023-02-12T10:08:48.474Z,1.64
2023-02-12T10:11:18.157Z,1.74
2023-02-12T10:13:59.999Z,1.35
2023-02-12T10:16:53.532Z,1.74
2023-02-12T10:19:38.317Z,1.51
2023-02-12T10:22:56.721Z,1.88
2023-02-12T10:25:44.611Z,1.93
2023-02-12T10:28:13.433Z,1.99
2023-02-12T10:30:40.421Z,2.12
2023-02-12T10:33:12.889Z,2.15
2023-02-12T10:35:45.495Z,2.16
2023-02-12T10:38:17.670Z,2.07
2023-02-12T10:40:44.988Z,2.23
2023-02-12T10:43:15.020Z,2.21
2023-02-12T10:45:42.531Z,2.25
2023-02-12T10:48:20.738Z,2.32
2023-02-12T10:50:47.685Z,2.40
2023-02-12T10:53:41.308Z,2.40
2023-02-12T10:56:11.107Z,2.49
2023-02-12T10:58:57.582Z,2.50
2023-02-12T11:01:29.121Z,2.55
2023-02-12T11:03:57.362Z,2.59
2023-02-12T11:06:28.932Z,2.59
2023-02-12T11:08:56.824Z,2.52
2023-02-12T11:11:33.685Z,2.59
2023-02-12T11:14:05.474Z,2.56
2023-02-12T11:16:36.817Z,2.50
2023-02-12T11:19:05.186Z,2.57
2023-02-12T11:21:32.482Z,2.71
2023-02-12T11:24:19.138Z,2.88
2023-02-12T11:26:46.027Z,2.93
2023-02-12T11:29:20.617Z,3.02
2023-02-12T11:32:20.079Z,3.04
2023-02-12T11:35:05.841Z,3.09
2023-02-12T11:37:36.754Z,3.08
2023-02-12T11:40:04.121Z,3.05
2023-02-12T11:42:35.278Z,3.13
2023-02-12T11:45:02.928Z,3.18
2023-02-12T11:47:32.543Z,3.25
2023-02-12T11:50:14.888Z,3.21
2023-02-12T11:52:42.391Z,3.20
2023-02-12T11:55:33.738Z,3.24
2023-02-12T11:58:05.217Z,3.33
2023-02-12T12:00:42.153Z,3.32
2023-02-12T12:03:18.909Z,3.43
2023-02-12T12:05:48.465Z,3.39
2023-02-12T12:08:30.728Z,3.36
2023-02-12T12:11:08.212Z,3.43
2023-02-12T12:13:39.095Z,3.52
2023-02-12T12:16:30.137Z,3.47
2023-02-12T12:19:18.392Z,3.61
2023-02-12T12:22:03.009Z,3.70
2023-02-12T12:24:34.811Z,3.62
2023-02-12T12:27:24.538Z,3.66
2023-02-12T12:29:55.200Z,3.62
2023-02-12T12:32:24.265Z,3.72
2023-02-12T12:34:51.151Z,3.75
2023-02-12T12:37:18.109Z,3.76
2023-02-12T12:40:14.562Z,3.79
2023-02-12T12:42:53.260Z,3.75
2023-02-12T12:45:35.648Z,3.70
2023-02-12T12:48:06.924Z,3.72
2023-02-12T12:50:34.492Z,3.78
2023-02-12T12:53:12.606Z,3.76
2023-02-12T12:55:39.650Z,3.80
2023-02-12T12:58:12.702Z,3.74
2023-02-12T13:01:02.003Z,3.80
2023-02-12T13:03:47.394Z,3.83
2023-02-12T13:06:17.245Z,3.87
2023-02-12T13:09:02.876Z,3.92
2023-02-12T13:11:32.409Z,3.99
2023-02-12T13:14:25.484Z,3.92
2023-02-12T13:17:12.811Z,3.89
2023-02-12T13:19:39.575Z,4.02
2023-02-12T13:22:11.509Z,4.00
2023-02-12T13:25:01.548Z,3.97
2023-02-12T13:27:36.507Z,4.07
2023-02-12T13:30:06.355Z,4.06
2023-02-12T13:32:43.450Z,4.08
2023-02-12T13:35:16.330Z,4.10
2023-02-12T13:37:48.873Z,4.12
2023-02-12T13:40:17.498Z,4.15
2023-02-12T13:42:53.294Z,4.17
2023-02-12T13:45:24.651Z,4.12
2023-02-12T13:48:14.698Z,4.04
2023-02-12T13:50:41.665Z,4.08
2023-02-12T13:53:08.702Z,4.18
2023-02-12T13:55:41.726Z,4.25
2023-02-12T13:58:27.476Z,4.16
2023-02-12T14:00:59.639Z,4.11
2023-02-12T14:03:27.675Z,4.09
2023-02-12T14:06:09.529Z,4.08
2023-02-12T14:08:38.577Z,4.07
2023-02-12T14:11:08.620Z,4.08
2023-02-12T14:13:54.175Z,4.02
2023-02-12T14:16:36.278Z,4.02
2023-02-12T14:19:23.183Z,4.00
2023-02-12T14:21:50.043Z,3.95
2023-02-12T14:24:35.729Z,4.00
2023-02-12T14:27:04.328Z,3.95
2023-02-12T14:29:31.389Z,3.91
2023-02-12T14:31:58.595Z,3.96
2023-02-12T14:34:38.406Z,3.85
2023-02-12T14:37:18.239Z,3.90
2023-02-12T14:39:45.702Z,4.00
2023-02-12T14:42:12.657Z,3.95
2023-02-12T14:44:56.188Z,3.84
2023-02-12T14:47:49.786Z,3.89
2023-02-12T14:50:23.300Z,3.95
2023-02-12T14:52:53.423Z,3.96
2023-02-12T14:55:26.104Z,3.86
2023-02-12T14:58:04.695Z,3.83
2023-02-12T15:00:39.357Z,3.78
2023-02-12T15:03:12.272Z,3.73
2023-02-12T15:05:54.981Z,3.67
2023-02-12T15:08:27.087Z,3.73
2023-02-12T15:10:55.857Z,3.69
2023-02-12T15:13:22.657Z,3.72
2023-02-12T15:15:52.626Z,3.77
2023-02-12T15:18:22.887Z,3.82
2023-02-12T15:21:05.104Z,3.70
2023-02-12T15:23:42.477Z,3.77
2023-02-12T15:26:15.037Z,3.71
2023-02-12T15:28:42.933Z,3.65
2023-02-12T15:31:11.087Z,3.73
2023-02-12T15:33:41.582Z,3.70
2023-02-12T15:36:10.817Z,3.71
2023-02-12T15:38:43.957Z,3.66
2023-02-12T15:41:24.237Z,3.64
2023-02-12T15:43:51.368Z,3.63
2023-02-12T15:46:18.752Z,3.58
2023-02-12T15:48:45.636Z,3.53
2023-02-12T15:51:24.704Z,3.61
2023-02-12T15:53:52.199Z,3.64
2023-02-12T15:56:20.770Z,3.52
2023-02-12T15:58:55.267Z,3.60
2023-02-12T16:01:24.036Z,3.56
2023-02-12T16:03:52.510Z,3.61
2023-02-12T16:06:20.651Z,3.70
2023-02-12T16:08:53.121Z,3.54
2023-02-12T16:11:21.348Z,3.47
2023-02-12T16:13:48.203Z,3.54
2023-02-12T16:16:15.036Z,3.51
2023-02-12T16:18:43.239Z,3.43
2023-02-12T16:21:20.900Z,3.43
2023-02-12T16:23:49.092Z,3.46
2023-02-12T16:26:20.814Z,3.37
2023-02-12T16:28:48.773Z,3.37
2023-02-12T16:31:16.424Z,3.43
2023-02-12T16:33:45.570Z,3.39
2023-02-12T16:36:24.854Z,3.31
2023-02-12T16:39:09.876Z,3.27
2023-02-12T16:41:55.422Z,3.54
2023-02-12T16:44:26.029Z,3.36
2023-02-12T16:46:54.525Z,3.20
2023-02-12T16:49:22.753Z,3.25
2023-02-12T16:51:50.863Z,3.20
2023-02-12T16:54:28.522Z,3.13
2023-02-12T16:56:55.810Z,3.25
2023-02-12T16:59:22.739Z,3.11
2023-02-12T17:02:00.738Z,3.03
2023-02-12T17:04:27.538Z,2.96
2023-02-12T17:06:54.665Z,2.89
2023-02-12T17:09:21.566Z,2.83
2023-02-12T17:11:48.592Z,2.79
2023-02-12T17:14:17.494Z,2.76
2023-02-12T17:17:02.944Z,2.69
2023-02-12T17:19:30.241Z,2.63
2023-02-12T17:21:57.299Z,2.61
2023-02-12T17:24:26.241Z,2.57
2023-02-12T17:26:53.984Z,2.56
2023-02-12T17:29:22.166Z,2.54
2023-02-12T17:31:49.295Z,2.52
2023-02-12T17:34:16.737Z,2.50
2023-02-12T17:36:43.669Z,2.47
2023-02-12T17:39:11.757Z,2.45
2023-02-12T17:41:38.552Z,2.42
2023-02-12T17:44:05.568Z,2.41
2023-02-12T17:46:33.193Z,2.40
2023-02-12T17:49:00.152Z,2.41
2023-02-12T17:51:26.993Z,2.39
2023-02-12T17:53:53.755Z,2.39
2023-02-12T17:56:22.919Z,2.39
2023-02-12T17:58:49.781Z,2.39
2023-02-12T18:01:18.113Z,2.39
2023-02-12T18:03:45.177Z,2.37
2023-02-12T18:06:14.358Z,2.37
2023-02-12T18:08:41.599Z,2.36
2023-02-12T18:11:10.335Z,2.36
2023-02-12T18:17:04.621Z,2.39
2023-02-12T18:19:32.063Z,2.38
2023-02-12T18:21:59.619Z,2.38
2023-02-12T18:24:27.593Z,2.39
2023-02-12T18:26:54.456Z,2.39
2023-02-12T18:29:21.198Z,2.39
2023-02-12T18:31:48.045Z,2.43
2023-02-12T18:34:14.765Z,2.43
2023-02-12T18:36:41.535Z,2.42
2023-02-12T18:39:09.291Z,2.43
2023-02-12T18:41:39.439Z,2.42
2023-02-12T18:44:06.813Z,2.43
2023-02-12T18:46:33.629Z,2.41
2023-02-12T18:49:00.847Z,2.42
2023-02-12T18:51:28.839Z,2.05
2023-02-12T18:53:56.391Z,2.41
2023-02-12T18:56:23.205Z,2.41
2023-02-12T18:58:54.160Z,2.41
2023-02-12T19:01:21.240Z,2.39
2023-02-12T19:03:51.010Z,2.39
2023-02-12T19:06:17.930Z,2.40
2023-02-12T19:08:45.068Z,2.40
2023-02-12T19:11:13.761Z,2.42
2023-02-12T19:13:46.042Z,2.42
2023-02-12T19:16:14.247Z,2.44
2023-02-12T19:18:41.721Z,2.49
2023-02-12T19:21:12.622Z,2.47
2023-02-12T19:23:39.473Z,2.50
2023-02-12T19:26:07.638Z,2.70
2023-02-12T19:28:34.640Z,2.59
2023-02-12T19:31:13.436Z,2.60
2023-02-12T19:33:42.640Z,2.72
2023-02-12T19:36:11.554Z,2.66
2023-02-12T19:38:38.956Z,2.57
2023-02-12T19:41:07.059Z,2.48
2023-02-12T19:43:33.909Z,2.42
2023-02-12T19:46:04.415Z,2.35
2023-02-12T19:48:31.544Z,2.28
2023-02-12T19:50:58.613Z,2.25
2023-02-12T19:53:25.593Z,2.23
2023-02-12T19:55:53.929Z,2.35
2023-02-12T19:58:21.618Z,2.28
2023-02-12T20:00:48.827Z,2.19
2023-02-12T20:03:15.645Z,2.12
2023-02-12T20:05:46.497Z,2.06
2023-02-12T20:08:13.755Z,2.01
2023-02-12T20:10:41.406Z,1.96
2023-02-12T20:13:08.315Z,1.91
2023-02-12T20:15:36.810Z,1.90
2023-02-12T20:18:04.380Z,1.83
2023-02-12T20:20:31.693Z,1.79
2023-02-12T20:22:59.002Z,1.38
2023-02-12T20:25:25.714Z,1.91
2023-02-12T20:27:53.050Z,1.81
2023-02-12T20:30:20.083Z,1.72
2023-02-12T20:32:46.977Z,1.66
2023-02-12T20:35:15.331Z,1.60
2023-02-12T20:37:44.746Z,1.54
2023-02-12T20:40:11.977Z,1.51
2023-02-12T20:42:39.285Z,1.45
2023-02-12T20:45:06.555Z,1.41
2023-02-12T20:47:33.775Z,1.41
2023-02-12T20:50:00.702Z,1.37
2023-02-12T20:52:29.301Z,1.32
2023-02-12T20:54:55.997Z,1.31
2023-02-12T20:57:23.169Z,1.30
2023-02-12T20:59:53.083Z,1.29
2023-02-12T21:02:20.014Z,1.23
2023-02-12T21:04:46.732Z,1.21
2023-02-12T21:07:13.417Z,1.17
2023-02-12T21:09:40.551Z,1.13
2023-02-12T21:12:08.033Z,1.12
2023-02-12T21:14:35.133Z,1.14
2023-02-12T21:17:02.236Z,1.12
2023-02-12T21:19:29.418Z,1.08
2023-02-12T21:21:56.270Z,0.99
2023-02-12T21:24:24.932Z,1.06
2023-02-12T21:26:52.510Z,1.04
2023-02-12T21:29:19.960Z,1.05
2023-02-12T21:31:47.885Z,1.02
2023-02-12T21:34:16.228Z,1.19
2023-02-12T21:36:45.362Z,1.14
2023-02-12T21:39:24.262Z,1.07
2023-02-12T21:41:52.389Z,1.01
2023-02-12T21:44:19.621Z,1.22
2023-02-12T21:46:46.574Z,1.20
2023-02-12T21:49:14.677Z,1.09
2023-02-12T21:51:43.143Z,1.10
2023-02-12T21:54:15.605Z,1.08
2023-02-12T21:56:43.342Z,1.19
2023-02-12T21:59:10.415Z,1.12
2023-02-12T22:01:38.881Z,1.04
2023-02-12T22:04:06.832Z,1.22
2023-02-12T22:06:36.613Z,1.18
2023-02-12T22:09:06.916Z,1.09
2023-02-12T22:11:34.665Z,1.19
2023-02-12T22:14:01.369Z,1.20
2023-02-12T22:16:28.693Z,1.29
2023-02-12T22:18:56.514Z,1.28
2023-02-12T22:21:24.302Z,1.37
2023-02-12T22:23:51.349Z,1.42
2023-02-12T22:26:19.642Z,1.40
2023-02-12T22:28:47.741Z,1.29
2023-02-12T22:31:19.560Z,1.10
2023-02-12T22:33:46.767Z,1.04
2023-02-12T22:36:13.824Z,1.04
2023-02-12T22:38:41.085Z,1.09
2023-02-12T22:41:08.619Z,0.95
2023-02-12T22:43:36.750Z,0.91
2023-02-12T22:46:03.845Z,0.97
2023-02-12T22:48:30.752Z,0.99
2023-02-12T22:50:58.122Z,0.95
2023-02-12T22:53:25.638Z,0.84
2023-02-12T22:55:53.062Z,0.77
2023-02-12T22:58:19.993Z,0.77
2023-02-12T23:00:46.872Z,0.84
2023-02-12T23:03:13.794Z,0.74
2023-02-12T23:05:40.707Z,0.67
2023-02-12T23:08:07.446Z,0.63
2023-02-12T23:10:34.206Z,0.56
2023-02-12T23:13:02.121Z,0.53
2023-02-12T23:15:28.951Z,0.56
2023-02-12T23:17:55.822Z,0.68
2023-02-12T23:20:22.875Z,0.69
2023-02-12T23:22:49.581Z,0.67
2023-02-12T23:25:16.732Z,0.73
2023-02-12T23:27:43.771Z,0.82
2023-02-12T23:30:10.920Z,0.80
2023-02-12T23:32:37.712Z,0.78
2023-02-12T23:35:04.594Z,0.80
2023-02-12T23:37:31.265Z,0.88
2023-02-12T23:39:58.212Z,0.69
2023-02-12T23:42:25.016Z,0.89
2023-02-12T23:44:51.696Z,0.87
2023-02-12T23:47:18.684Z,0.83
2023-02-12T23:49:45.606Z,0.82
2023-02-12T23:52:14.954Z,0.79
2023-02-12T23:54:41.858Z,0.68
2023-02-12T23:57:08.942Z,0.71
2023-02-12T23:59:35.607Z,0.64
